Tropical Cyclones
[Index]
Main Index Home Page Stock Weather Photos Extreme Storms Discussion Storm News and Storm Chasing Reports Tropical Cyclones / Hurricanes / Typhoons Weather Data and Links Wild Fires / Bushfires Weather Observation Techniques Weather Picture Catalogue Tornado Pictures and Reports Stock Video Footage and DVDs for sale
Season 1972-1973 Tropical Cyclone MADGE Track Map
Season 1972-1973 Summaries: [BoM-AU] [JTWC-AU] [JTWC-SIO] [JTWC-SPAC] [JTWC-SH]
<<- Previous TC | BoM 1972-1973 Season | Next TC ->>

click for intensity scale information  Lat/long Grid: Show Hide

 Date Labels: Show Hide

Bureau of Meteorology Tropical Cyclone Data

Name: MADGE
Number: 505 / 197273_09

28 Feb 1973 17:00 UTC to 18 Mar 1973 01:00 UTC

    date/time    lat    long    hPa   cat  kts
1973-02-28 17    8.1   160.8   1003                     
1973-02-28 20    8.2   160.4   1003                     
1973-02-28 23    8.4   159.9   1003                     
1973-03-01 08    9.3   158.6   1000                     
1973-03-01 11    9.5   157.8   1001                     
1973-03-01 20    9.7   155.5    999                     
1973-03-01 23   10.0   155.0   1000                     
1973-03-02 11   11.9   153.2   1000                     
1973-03-02 17   12.6   152.1   1001                     
1973-03-02 23   13.0   150.9   1002                     
1973-03-03 11   13.8   148.5   1001                     
1973-03-03 23   14.6   146.1    998                     
1973-03-04 02   14.8   145.2    997                     
1973-03-04 11   14.9   142.6    998                     
1973-03-04 14   14.9   141.6    996                     
1973-03-04 23   14.9   139.4    988    1                
1973-03-05 06   14.8   138.2    985    2                
1973-03-05 09   14.5   137.6    985    2                
1973-03-05 12   14.3   137.2    985    2                
1973-03-05 15   14.1   136.1    985    2                
1973-03-05 18   13.9   136.0    985    2                
1973-03-05 21   13.7   135.6    990    1                
1973-03-06 00   13.6   135.1    998                     
1973-03-06 11   13.7   133.1                            
1973-03-06 23   14.1   131.0                            
1973-03-07 10   14.8   129.7    999                     
1973-03-07 13   15.1   128.8    999                     
1973-03-07 16   15.3   128.4    999                     
1973-03-07 19   15.3   127.9    997                     
1973-03-07 22   15.4   127.6    999                     
1973-03-08 01   15.4   127.4   1000                     
1973-03-08 04   15.5   126.8    999                     
1973-03-08 07   15.6   126.5    997                     
1973-03-08 10   16.0   126.2    998                     
1973-03-08 13   16.1   126.0    998                     
1973-03-08 16   16.4   125.7    999                     
1973-03-08 19   16.6   125.5    999                     
1973-03-08 22   16.8   125.3   1000                     
1973-03-09 01   17.0   125.1   1000                     
1973-03-09 04   17.1   124.9    998                     
1973-03-09 06   17.2   124.5    997                     
1973-03-09 07   17.2   124.5    996                     
1973-03-09 10   17.2   124.2    995    1                
1973-03-09 13   17.1   123.9    995    1                
1973-03-09 14   17.0   123.7    995    1                
1973-03-09 16   17.0   123.5    995    1                
1973-03-09 17   17.0   123.3    994    1                
1973-03-09 19   16.9   123.0    993    1                
1973-03-09 22   16.9   122.5    990    1                
1973-03-10 01   17.0   122.3    992    1                
1973-03-10 04   17.1   122.0    990    1                
1973-03-10 07   17.3   121.2    988    1                
1973-03-10 10   17.5   120.5    986    1                
1973-03-10 13   17.8   120.2    984    2                
1973-03-10 16   18.0   119.6    981    2                
1973-03-10 19   18.0   119.0    978    2                
1973-03-10 20   18.0   119.0    977    2                
1973-03-10 22   17.9   118.6    976    2                
1973-03-11 01   17.9   118.0    973    2                
1973-03-11 04   18.1   117.4    971    2                
1973-03-11 07   18.3   116.7    968    3                
1973-03-11 10   18.5   116.2    965    3                
1973-03-11 13   18.6   115.1    961    3                
1973-03-11 16   18.7   114.4    958    3                
1973-03-11 19   18.7   113.5    956    3                
1973-03-11 22   18.8   112.7    955    4                
1973-03-12 01   18.8   112.0    954    4                
1973-03-12 04   18.8   111.2    953    4                
1973-03-12 07   18.8   110.3    952    4                
1973-03-12 10   18.8   109.5    953    4                
1973-03-12 13   18.8   109.1    953    4                
1973-03-12 16   18.9   108.3    953    4                
1973-03-12 19   18.8   107.6    952    4                
1973-03-12 22   18.8   106.8    953    4                
1973-03-13 01   18.9   106.1    954    4                
1973-03-13 04   19.3   105.4    955    4                
1973-03-13 07   19.5   105.1    955    4                
1973-03-13 10   19.9   104.9    957    3                
1973-03-13 13   20.1   104.5    958    3                
1973-03-13 16   20.3   104.2    959    3                
1973-03-13 19   20.5   103.8    960    3                
1973-03-13 22   20.5   103.4    962    3                
1973-03-14 01   20.6   103.1    964    3                
1973-03-14 04   20.6   102.7    967    3                
1973-03-14 07   20.7   102.1    970    3                
1973-03-14 10   20.7   101.4    974    2                
1973-03-14 13   20.7   100.8    978    2                
1973-03-14 16   20.7   100.1    982    2                
1973-03-14 19   20.6    99.2    983    2                
1973-03-14 22   20.6    98.4    984    2                
1973-03-15 01   20.4    97.4    985    2                
1973-03-15 04   20.3    96.5    986    1                
1973-03-15 07   20.1    95.6    987    1                
1973-03-15 10   19.9    94.7    989    1                
1973-03-15 13   19.7    93.9    990    1                
1973-03-15 16   19.6    93.2    994    1                
1973-03-15 19   19.6    93.5    993    1                
1973-03-15 22   19.6    92.4    995    1                
1973-03-16 01   19.6    92.1    996                     
1973-03-16 04   19.6    92.0    997                     
1973-03-16 07   19.7    91.8    999                     
1973-03-16 10   19.7    91.6   1000                     
1973-03-16 13   19.7    91.4   1001                     
1973-03-16 16   19.8    91.2   1002                     
1973-03-16 19   19.8    91.1   1003                     
1973-03-16 22   19.9    90.9   1004                     
1973-03-17 01   20.0    90.8   1004                     
1973-03-17 04   20.0    90.7   1005                     
1973-03-17 07   20.1    90.5   1006                     
1973-03-17 10   20.1    90.2   1007                     
1973-03-17 13   20.2    90.1   1009                     
1973-03-17 16   20.2    89.5   1009                     
1973-03-17 19   20.2    88.8   1010                     
1973-03-17 22   20.2    87.8   1011                     
1973-03-18 01   20.1    86.8   1012                     
Winds are 10-min average.

Tropical cyclone tracks developed by Michael Bath using data from the Bureau of Meteorology and Google Maps.


[Australian Severe Weather index] [Copyright Notice] [Email Contacts] [Search This Site] [Privacy Policy]
Document: tropical_cyclone_madge.htm Updated: 30 May 2013